首页
METAR-TAF:

METAR-TAF

机场 :

杜尚别机场

杜尚别, 塔吉克斯坦

纬度: 38-33N, 经度: 068-47E, 海拔: 803米

当前天气观测

该预报发布于11分钟前的19:30 UTC
风速2节,风向
温度 4°C
湿度 87%
气压 1031 hPa
能見度: 2200
轻雾, 烟

METAR: UTDD 171930Z 10001MPS 2200 BR FU NSC 04/02 Q1031 R09/CLRD// NOSIG RMK QFE704/0938

时间: 00:41 (19:41 UTC)

预报

该预报发布于1小时和41分钟前的18:00 UTC
预报有效从17日的 19点(UTC)到 18日的 07点(UTC)
风速4节,风向多变
能見度: 3100
散云层高于5000英尺, 积雨云.
散云层高于10000英尺
轻雾, 烟
短暂存在
从 17日的 19点(UTC)到 17日的 23点(UTC)
能見度: 1700
轻雾, 烟
短暂存在
从 17日的 23点(UTC)到 18日的 04点(UTC)
能見度: 1000
轻雾, 烟

TAF: UTDD 171800Z 1719/1807 VRB02MPS 3100 BR FU SCT050CB SCT100 TEMPO 1719/1723 1700 BR FU TEMPO 1723/1804 1000 BR FU

超过4000个机场的气象观测和天气预报(METAR&TAF报告)。

可查询的气象台以黄色和红色小点在地图上表示。

将鼠标移到小点上方,可查看气象台名称。

然后点击查看天气观测和预报。

如需切换地图:点击带黑十字的绿色按钮放大地图;点击带横线的绿色按钮缩小地图;或者点击绿色箭头查看邻近地区的地图。


METAR-TAF: